createdAt,value
2022-07-30T00:02:27.731Z,18.50
2022-07-30T00:05:49.970Z,18.40
2022-07-30T00:09:12.072Z,18.40
2022-07-30T00:12:35.277Z,18.40
2022-07-30T00:15:57.134Z,18.30
2022-07-30T00:19:19.241Z,18.40
2022-07-30T00:22:42.486Z,18.40
2022-07-30T00:26:04.306Z,18.30
2022-07-30T00:29:27.464Z,18.30
2022-07-30T00:32:50.492Z,18.20
2022-07-30T00:36:12.316Z,18.30
2022-07-30T00:39:34.129Z,18.40
2022-07-30T00:42:56.280Z,18.50
2022-07-30T00:46:19.730Z,18.50
2022-07-30T00:49:44.385Z,18.60
2022-07-30T00:53:07.075Z,18.60
2022-07-30T00:56:28.902Z,18.70
2022-07-30T00:59:50.838Z,18.80
2022-07-30T01:03:14.034Z,18.70
2022-07-30T01:06:35.864Z,18.80
2022-07-30T01:09:57.706Z,18.80
2022-07-30T01:13:19.669Z,18.70
2022-07-30T01:16:42.985Z,18.70
2022-07-30T01:20:09.492Z,18.70
2022-07-30T01:23:37.986Z,18.80
2022-07-30T01:27:04.458Z,18.80
2022-07-30T01:30:28.176Z,18.80
2022-07-30T01:33:50.480Z,18.80
2022-07-30T01:37:16.568Z,18.60
2022-07-30T01:40:39.478Z,18.50
2022-07-30T01:44:03.865Z,18.40
2022-07-30T01:47:29.125Z,18.20
2022-07-30T01:50:56.259Z,18.10
2022-07-30T01:54:19.722Z,18.00
2022-07-30T01:57:41.678Z,18.00
2022-07-30T02:01:05.657Z,17.90
2022-07-30T02:04:30.545Z,17.90
2022-07-30T02:08:06.089Z,17.80
2022-07-30T02:11:28.049Z,17.80
2022-07-30T02:15:00.477Z,17.70
2022-07-30T02:18:32.737Z,17.70
2022-07-30T02:21:59.904Z,17.70
2022-07-30T02:25:27.377Z,17.60
2022-07-30T02:28:54.049Z,17.60
2022-07-30T02:32:20.155Z,17.50
2022-07-30T02:35:44.328Z,17.50
2022-07-30T02:39:06.539Z,17.50
2022-07-30T02:42:29.873Z,17.40
2022-07-30T02:45:52.825Z,17.30
2022-07-30T02:49:17.363Z,17.30
2022-07-30T02:52:42.320Z,17.20
2022-07-30T02:56:06.871Z,17.20
2022-07-30T02:59:30.322Z,17.20
2022-07-30T03:02:56.700Z,17.20
2022-07-30T03:06:19.853Z,17.20
2022-07-30T03:09:50.983Z,17.20
2022-07-30T03:13:17.180Z,17.30
2022-07-30T03:16:39.906Z,17.30
2022-07-30T03:20:03.437Z,17.30
2022-07-30T03:23:26.124Z,17.30
2022-07-30T03:26:49.894Z,17.30
2022-07-30T03:30:13.194Z,17.30
2022-07-30T03:33:38.113Z,17.20
2022-07-30T03:37:01.661Z,17.20
2022-07-30T03:40:24.600Z,17.10
2022-07-30T03:43:49.074Z,17.00
2022-07-30T03:47:13.320Z,17.00
2022-07-30T03:50:41.296Z,16.90
2022-07-30T03:54:04.384Z,16.90
2022-07-30T03:57:35.547Z,16.80
2022-07-30T04:00:58.986Z,16.80
2022-07-30T04:04:21.983Z,16.80
2022-07-30T04:07:45.282Z,16.70
2022-07-30T04:11:08.452Z,16.70
2022-07-30T04:14:51.542Z,16.70
2022-07-30T04:18:16.991Z,16.70
2022-07-30T04:21:40.206Z,16.70
2022-07-30T04:25:03.407Z,16.70
2022-07-30T04:28:27.582Z,16.70
2022-07-30T04:31:49.656Z,16.70
2022-07-30T04:35:51.407Z,16.80
2022-07-30T04:39:31.329Z,16.80
2022-07-30T04:42:53.182Z,16.90
2022-07-30T04:46:15.226Z,16.90
2022-07-30T04:49:38.617Z,16.90
2022-07-30T04:53:03.248Z,17.10
2022-07-30T04:56:30.772Z,17.20
2022-07-30T04:59:53.555Z,17.20
2022-07-30T05:03:17.229Z,17.40
2022-07-30T05:06:45.696Z,17.50
2022-07-30T05:10:10.689Z,17.60
2022-07-30T05:13:34.518Z,17.80
2022-07-30T05:17:00.427Z,17.90
2022-07-30T05:20:23.432Z,18.20
2022-07-30T05:24:06.364Z,18.60
2022-07-30T05:27:35.419Z,19.50
2022-07-30T05:31:08.271Z,20.40
2022-07-30T05:34:32.113Z,21.40
2022-07-30T05:37:54.726Z,22.00
2022-07-30T05:41:31.607Z,22.50
2022-07-30T05:45:07.996Z,22.90
2022-07-30T05:48:29.888Z,23.50
2022-07-30T05:51:55.342Z,23.80
2022-07-30T05:55:18.394Z,24.20
2022-07-30T05:59:00.367Z,24.70
2022-07-30T06:02:42.195Z,25.60
2022-07-30T06:06:24.163Z,26.60
2022-07-30T06:09:47.172Z,28.00
2022-07-30T06:13:09.197Z,28.80
2022-07-30T06:16:31.285Z,29.50
2022-07-30T06:19:54.476Z,29.20
2022-07-30T06:23:19.698Z,30.20
2022-07-30T06:27:00.051Z,30.70
2022-07-30T06:30:31.114Z,31.50
2022-07-30T06:33:54.253Z,31.50
2022-07-30T06:37:18.135Z,31.70
2022-07-30T06:40:40.142Z,31.90
2022-07-30T06:44:10.283Z,31.20
2022-07-30T06:47:52.092Z,30.80
2022-07-30T06:51:14.134Z,30.80
2022-07-30T06:54:37.403Z,29.30
2022-07-30T06:58:09.280Z,29.20
2022-07-30T07:01:51.103Z,30.00
2022-07-30T07:05:14.053Z,31.30
2022-07-30T07:08:40.257Z,32.60
2022-07-30T07:12:06.143Z,31.10
2022-07-30T07:15:36.407Z,30.20
2022-07-30T07:19:00.002Z,29.80
2022-07-30T07:22:21.870Z,30.80
2022-07-30T07:25:43.727Z,31.40
2022-07-30T07:29:06.933Z,32.30
2022-07-30T07:32:29.185Z,32.70
2022-07-30T07:35:51.126Z,32.30
2022-07-30T07:39:21.799Z,32.00
2022-07-30T07:42:44.390Z,32.60
2022-07-30T07:46:08.011Z,33.00
2022-07-30T07:49:31.065Z,33.70
2022-07-30T07:52:54.844Z,34.20
2022-07-30T07:56:19.237Z,34.40
2022-07-30T07:59:42.228Z,34.40
2022-07-30T08:03:11.084Z,34.30
2022-07-30T08:06:33.832Z,34.10
2022-07-30T08:10:14.287Z,34.60
2022-07-30T08:13:59.003Z,34.80
2022-07-30T08:17:44.114Z,34.00
2022-07-30T08:21:16.340Z,33.70
2022-07-30T08:24:38.180Z,32.80
2022-07-30T08:28:00.253Z,32.90
2022-07-30T08:31:22.757Z,32.40
2022-07-30T08:34:44.670Z,32.10
2022-07-30T08:38:08.359Z,32.00
2022-07-30T08:41:31.258Z,32.30
2022-07-30T08:44:53.757Z,32.10
2022-07-30T08:48:17.086Z,32.50
2022-07-30T08:51:42.635Z,31.90
2022-07-30T08:55:34.802Z,30.70
2022-07-30T08:58:57.157Z,30.20
2022-07-30T09:02:27.224Z,31.10
2022-07-30T09:06:01.099Z,31.50
2022-07-30T09:09:23.022Z,31.10
2022-07-30T09:12:46.317Z,31.50
2022-07-30T09:16:20.175Z,31.90
2022-07-30T09:20:01.339Z,32.50
2022-07-30T09:23:25.886Z,33.10
2022-07-30T09:27:06.713Z,32.90
2022-07-30T09:30:49.872Z,32.50
2022-07-30T09:34:40.571Z,32.80
2022-07-30T09:38:06.341Z,32.90
2022-07-30T09:41:46.917Z,32.80
2022-07-30T09:45:12.631Z,33.50
2022-07-30T09:48:39.275Z,33.80
2022-07-30T09:52:01.373Z,33.70
2022-07-30T09:55:32.394Z,32.70
2022-07-30T09:58:55.711Z,31.40
2022-07-30T10:02:19.126Z,29.90
2022-07-30T10:06:03.622Z,29.60
2022-07-30T10:09:29.587Z,29.50
2022-07-30T10:12:53.742Z,30.80
2022-07-30T10:16:15.970Z,32.20
2022-07-30T10:19:40.251Z,33.10
2022-07-30T10:23:15.859Z,34.40
2022-07-30T10:26:56.248Z,34.30
2022-07-30T10:30:44.710Z,33.60
2022-07-30T10:34:07.441Z,32.00
2022-07-30T10:37:31.494Z,31.20
2022-07-30T10:41:02.210Z,30.90
2022-07-30T10:45:01.255Z,30.60
2022-07-30T10:48:24.060Z,30.80
2022-07-30T10:51:48.178Z,30.10
2022-07-30T10:55:12.521Z,30.00
2022-07-30T10:59:03.535Z,29.70
2022-07-30T11:02:26.527Z,29.20
2022-07-30T11:05:50.137Z,29.00
2022-07-30T11:09:41.084Z,29.10
2022-07-30T11:13:04.284Z,28.80
2022-07-30T11:17:01.092Z,28.60
2022-07-30T11:20:22.939Z,28.60
2022-07-30T11:23:47.081Z,28.60
2022-07-30T11:27:36.290Z,28.90
2022-07-30T11:30:58.509Z,28.90
2022-07-30T11:34:29.747Z,28.70
2022-07-30T11:38:02.517Z,28.50
2022-07-30T11:41:26.215Z,28.60
2022-07-30T11:44:48.392Z,28.50
2022-07-30T11:48:12.327Z,28.40
2022-07-30T11:51:43.049Z,28.50
2022-07-30T11:55:05.480Z,28.50
2022-07-30T11:58:29.262Z,28.40
2022-07-30T12:01:52.486Z,28.30
2022-07-30T12:05:15.149Z,28.40
2022-07-30T12:08:42.855Z,28.50
2022-07-30T12:12:21.061Z,28.30
2022-07-30T12:15:45.031Z,28.30
2022-07-30T12:19:09.474Z,28.40
2022-07-30T12:22:33.477Z,28.00
2022-07-30T12:25:58.125Z,27.80
2022-07-30T12:29:20.090Z,27.60
2022-07-30T12:32:42.215Z,27.70
2022-07-30T12:36:04.455Z,27.90
2022-07-30T12:39:27.026Z,28.00
2022-07-30T12:42:53.736Z,28.30
2022-07-30T12:46:17.925Z,28.40
2022-07-30T12:49:49.469Z,28.30
2022-07-30T12:53:12.014Z,28.20
2022-07-30T12:56:33.884Z,28.00
2022-07-30T13:00:05.675Z,28.00
2022-07-30T13:03:28.872Z,27.90
2022-07-30T13:07:04.612Z,27.90
2022-07-30T13:10:31.210Z,28.10
2022-07-30T13:13:53.962Z,28.20
2022-07-30T13:17:18.427Z,28.10
2022-07-30T13:20:40.251Z,27.90
2022-07-30T13:24:02.082Z,27.60
2022-07-30T13:27:24.139Z,27.40
2022-07-30T13:30:46.769Z,27.20
2022-07-30T13:34:10.009Z,27.20
2022-07-30T13:37:37.490Z,27.20
2022-07-30T13:41:03.026Z,27.20
2022-07-30T13:44:25.003Z,27.20
2022-07-30T13:47:46.828Z,27.20
2022-07-30T13:51:10.088Z,27.40
2022-07-30T13:54:31.928Z,27.40
2022-07-30T13:57:53.949Z,27.50
2022-07-30T14:01:17.368Z,27.70
2022-07-30T14:04:40.097Z,28.30
2022-07-30T14:08:03.618Z,28.70
2022-07-30T14:11:25.525Z,28.90
2022-07-30T14:14:47.337Z,29.00
2022-07-30T14:18:09.254Z,29.00
2022-07-30T14:21:31.472Z,29.20
2022-07-30T14:24:54.668Z,29.30
2022-07-30T14:28:16.475Z,29.40
2022-07-30T14:31:39.432Z,29.40
2022-07-30T14:35:01.332Z,29.30
2022-07-30T14:38:23.199Z,29.00
2022-07-30T14:41:52.506Z,28.70
2022-07-30T14:45:17.776Z,28.60
2022-07-30T14:48:39.596Z,28.70
2022-07-30T14:52:01.451Z,28.60
2022-07-30T14:55:23.320Z,28.70
2022-07-30T14:58:46.692Z,28.60
2022-07-30T15:02:10.883Z,28.60
2022-07-30T15:05:33.145Z,28.50
2022-07-30T15:08:54.991Z,28.40
2022-07-30T15:12:23.786Z,28.10
2022-07-30T15:15:50.165Z,28.00
2022-07-30T15:19:11.998Z,28.20
2022-07-30T15:22:33.897Z,28.30
2022-07-30T15:25:55.842Z,28.20
2022-07-30T15:29:17.667Z,27.90
2022-07-30T15:32:40.840Z,27.50
2022-07-30T15:36:02.768Z,27.20
2022-07-30T15:39:24.607Z,27.00
2022-07-30T15:42:50.331Z,27.00
2022-07-30T15:46:12.207Z,27.00
2022-07-30T15:49:35.419Z,27.00
2022-07-30T15:52:58.329Z,27.00
2022-07-30T15:56:20.160Z,26.90
2022-07-30T15:59:42.052Z,26.90
2022-07-30T16:03:04.061Z,26.90
2022-07-30T16:06:27.409Z,26.90
2022-07-30T16:09:49.355Z,27.10
2022-07-30T16:13:11.196Z,27.10
2022-07-30T16:16:32.991Z,27.10
2022-07-30T16:19:54.792Z,27.00
2022-07-30T16:23:21.259Z,27.00
2022-07-30T16:26:43.724Z,26.90
2022-07-30T16:30:06.607Z,27.00
2022-07-30T16:33:28.485Z,27.10
2022-07-30T16:36:50.410Z,27.10
2022-07-30T16:40:13.971Z,27.10
2022-07-30T16:43:35.809Z,27.00
2022-07-30T16:46:57.639Z,26.90
2022-07-30T16:50:20.070Z,26.80
2022-07-30T16:53:41.944Z,26.80
2022-07-30T16:57:09.887Z,26.80
2022-07-30T17:00:32.650Z,26.90
2022-07-30T17:03:54.565Z,27.00
2022-07-30T17:07:16.376Z,27.10
2022-07-30T17:10:38.382Z,27.10
2022-07-30T17:14:04.160Z,27.20
2022-07-30T17:17:25.995Z,27.10
2022-07-30T17:20:48.546Z,27.00
2022-07-30T17:24:10.357Z,26.90
2022-07-30T17:27:32.566Z,26.70
2022-07-30T17:30:55.745Z,26.50
2022-07-30T17:34:17.920Z,26.40
2022-07-30T17:37:39.839Z,26.30
2022-07-30T17:41:01.959Z,26.20
2022-07-30T17:44:23.783Z,26.20
2022-07-30T17:47:46.946Z,26.10
2022-07-30T17:51:09.526Z,26.00
2022-07-30T17:54:31.462Z,26.00
2022-07-30T17:57:53.477Z,25.90
2022-07-30T18:01:15.437Z,25.80
2022-07-30T18:04:38.638Z,25.70
2022-07-30T18:08:00.449Z,25.60
2022-07-30T18:11:22.662Z,25.50
2022-07-30T18:14:44.539Z,25.40
2022-07-30T18:18:06.499Z,25.40
2022-07-30T18:21:30.999Z,25.30
2022-07-30T18:24:53.868Z,25.20
2022-07-30T18:28:16.305Z,25.10
2022-07-30T18:31:38.136Z,25.10
2022-07-30T18:34:59.929Z,25.00
2022-07-30T18:38:23.089Z,24.90
2022-07-30T18:41:44.888Z,24.80
2022-07-30T18:45:07.649Z,24.70
2022-07-30T18:48:29.442Z,24.60
2022-07-30T18:51:51.300Z,24.50
2022-07-30T18:55:14.752Z,24.40
2022-07-30T18:58:36.652Z,24.30
2022-07-30T19:01:59.292Z,24.10
2022-07-30T19:05:21.253Z,23.90
2022-07-30T19:08:43.135Z,23.80
2022-07-30T19:12:07.058Z,23.60
2022-07-30T19:15:29.740Z,23.50
2022-07-30T19:18:51.560Z,23.30
2022-07-30T19:22:13.504Z,23.10
2022-07-30T19:25:36.568Z,23.00
2022-07-30T19:28:59.793Z,22.90
2022-07-30T19:32:21.668Z,22.80
2022-07-30T19:35:43.913Z,22.70
2022-07-30T19:39:07.704Z,22.60
2022-07-30T19:42:30.781Z,22.50
2022-07-30T19:45:54.108Z,22.50
2022-07-30T19:49:21.712Z,22.40
2022-07-30T19:52:51.263Z,22.30
2022-07-30T19:56:13.553Z,22.20
2022-07-30T19:59:45.452Z,22.10
2022-07-30T20:03:26.067Z,22.00
2022-07-30T20:06:53.588Z,21.90
2022-07-30T20:10:16.618Z,21.80
2022-07-30T20:13:44.770Z,21.80
2022-07-30T20:17:07.541Z,21.70
2022-07-30T20:20:30.933Z,21.60
2022-07-30T20:23:53.424Z,21.50
2022-07-30T20:27:37.394Z,21.50
2022-07-30T20:30:59.756Z,21.30
2022-07-30T20:34:23.650Z,21.30
2022-07-30T20:37:55.331Z,21.20
2022-07-30T20:41:18.208Z,21.10
2022-07-30T20:44:43.284Z,21.00
2022-07-30T20:48:17.361Z,21.00
2022-07-30T20:51:50.383Z,20.90
2022-07-30T20:55:14.578Z,20.90
2022-07-30T20:58:38.129Z,20.90
2022-07-30T21:02:03.397Z,20.80
2022-07-30T21:05:26.874Z,20.70
2022-07-30T21:08:49.006Z,20.60
2022-07-30T21:12:13.120Z,20.60
2022-07-30T21:15:35.466Z,20.50
2022-07-30T21:18:57.490Z,20.50
2022-07-30T21:22:19.282Z,20.40
2022-07-30T21:26:00.354Z,20.40
2022-07-30T21:29:27.303Z,20.30
2022-07-30T21:32:49.159Z,20.30
2022-07-30T21:36:11.344Z,20.30
2022-07-30T21:39:33.393Z,20.30
2022-07-30T21:43:02.015Z,20.20
2022-07-30T21:46:31.528Z,20.20
2022-07-30T21:49:53.410Z,20.10
2022-07-30T21:53:15.273Z,20.10
2022-07-30T21:56:41.403Z,20.00
2022-07-30T22:00:09.797Z,20.00
2022-07-30T22:04:04.806Z,20.00
2022-07-30T22:07:16.562Z,20.00
2022-07-30T22:10:39.207Z,19.90
2022-07-30T22:14:03.353Z,19.80
2022-07-30T22:17:36.890Z,19.80
2022-07-30T22:21:10.252Z,19.80
2022-07-30T22:24:32.119Z,19.80
2022-07-30T22:27:56.653Z,19.90
2022-07-30T22:31:19.184Z,19.90
2022-07-30T22:34:42.307Z,19.80
2022-07-30T22:38:08.712Z,19.70
2022-07-30T22:41:30.647Z,19.70
2022-07-30T22:44:53.097Z,19.70
2022-07-30T22:48:26.864Z,19.70
2022-07-30T22:52:01.224Z,19.80
2022-07-30T22:55:29.627Z,19.80
2022-07-30T22:58:52.707Z,19.90
2022-07-30T23:02:14.895Z,19.90
2022-07-30T23:05:40.006Z,20.00
2022-07-30T23:09:04.886Z,20.00
2022-07-30T23:12:34.960Z,20.00
2022-07-30T23:15:57.509Z,20.00
2022-07-30T23:19:22.000Z,20.00
2022-07-30T23:22:44.456Z,20.00
2022-07-30T23:26:06.490Z,19.90
2022-07-30T23:29:29.777Z,19.90
2022-07-30T23:32:51.718Z,19.80
2022-07-30T23:36:13.757Z,19.70
2022-07-30T23:39:35.622Z,19.60
2022-07-30T23:42:57.433Z,19.50
